Time;durP1;ratioP1;P1;durP2;ratioP2;P2;SDS_P1;SDS_P2;PMS_P1;PMS_P2;Temp;Humidity;BMP_temperature;BMP_pressure;BME280_temperature;BME280_humidity;BME280_pressure;Samples;Min_cycle;Max_cycle;Signal;HPM_P1;HPM_P2
2021/01/08 00:01:39;;;;;;;0.75;0.22;;;19.60;38.00;;;;;;5076705;28;20524;-69
2021/01/08 00:04:15;;;;;;;0.00;0.00;;;19.50;37.90;;;;;;5088977;28;20025;-69
2021/01/08 00:06:40;;;;;;;1.55;0.75;;;19.50;38.00;;;;;;5077109;28;20067;-75
2021/01/08 00:09:06;;;;;;;0.10;0.10;;;19.50;38.00;;;;;;5077212;28;20428;-69
2021/01/08 00:11:37;;;;;;;0.32;0.30;;;19.50;38.00;;;;;;5078055;28;20063;-70
2021/01/08 00:14:03;;;;;;;0.20;0.20;;;19.50;38.00;;;;;;5060731;28;20028;-69
2021/01/08 00:16:33;;;;;;;0.00;0.00;;;19.50;38.00;;;;;;5077241;28;20085;-69
2021/01/08 00:18:58;;;;;;;0.43;0.15;;;19.50;38.00;;;;;;5077793;28;20079;-69
2021/01/08 00:21:24;;;;;;;0.10;0.10;;;19.50;38.00;;;;;;5077080;28;20499;-70
2021/01/08 00:24:09;;;;;;;1.17;0.38;;;19.50;38.00;;;;;;5076207;28;20024;-70
2021/01/08 00:26:34;;;;;;;0.00;0.00;;;19.50;38.00;;;;;;5076927;28;20078;-70
2021/01/08 00:29:00;;;;;;;0.57;0.40;;;19.50;37.90;;;;;;5057219;28;20040;-70
2021/01/08 00:31:34;;;;;;;0.20;0.15;;;19.50;37.90;;;;;;5085919;28;20032;-76
2021/01/08 00:33:59;;;;;;;0.10;0.10;;;19.50;37.80;;;;;;5070817;28;20103;-77
2021/01/08 00:36:25;;;;;;;0.20;0.20;;;19.50;37.80;;;;;;5092194;28;20107;-77
2021/01/08 00:38:50;;;;;;;0.32;0.20;;;19.50;37.80;;;;;;5090053;28;20023;-76
2021/01/08 00:41:35;;;;;;;0.43;0.28;;;19.50;37.80;;;;;;5113191;28;20490;-77
2021/01/08 00:44:01;;;;;;;0.22;0.22;;;19.40;37.80;;;;;;5077052;28;20032;-76
2021/01/08 00:46:40;;;;;;;0.15;0.15;;;19.40;38.50;;;;;;5095169;28;20027;-77
2021/01/08 00:49:06;;;;;;;0.00;0.00;;;19.40;37.90;;;;;;5051583;28;20123;-77
2021/01/08 00:51:32;;;;;;;0.88;0.35;;;19.40;37.80;;;;;;5050841;28;20519;-76
2021/01/08 00:53:57;;;;;;;0.80;0.45;;;19.40;37.90;;;;;;5088609;28;20059;-77
2021/01/08 00:56:23;;;;;;;0.55;0.08;;;19.40;37.90;;;;;;5073398;28;20038;-76
2021/01/08 00:58:48;;;;;;;0.00;0.00;;;19.40;37.90;;;;;;5067802;28;20491;-77
2021/01/08 01:01:14;;;;;;;0.25;0.25;;;19.40;37.90;;;;;;5060358;28;20024;-77
2021/01/08 01:03:40;;;;;;;0.45;0.30;;;19.40;37.90;;;;;;5071403;28;20028;-77
2021/01/08 01:09:36;;;;;;;0.00;0.00;;;19.30;37.80;;;;;;5088216;28;20023;-70
2021/01/08 01:12:03;;;;;;;0.00;0.00;;;19.30;37.90;;;;;;5076183;28;20043;-76
2021/01/08 01:14:28;;;;;;;0.40;0.40;;;19.30;37.90;;;;;;5091891;28;20274;-75
2021/01/08 01:16:54;;;;;;;0.20;0.20;;;19.30;37.80;;;;;;5094748;28;20036;-75
2021/01/08 01:19:19;;;;;;;0.00;0.00;;;19.30;37.80;;;;;;5094355;28;20024;-75
2021/01/08 01:21:45;;;;;;;0.13;0.13;;;19.30;37.80;;;;;;5066599;28;20121;-75
2021/01/08 01:24:11;;;;;;;0.20;0.20;;;19.20;37.90;;;;;;5094769;28;20024;-75
2021/01/08 01:26:36;;;;;;;0.10;0.10;;;19.20;37.90;;;;;;5059610;28;20040;-70
2021/01/08 01:29:02;;;;;;;0.38;0.38;;;19.20;37.90;;;;;;5075866;28;20044;-70
2021/01/08 01:31:28;;;;;;;2.83;0.60;;;19.20;37.90;;;;;;5088771;28;20107;-70
2021/01/08 01:33:54;;;;;;;0.10;0.10;;;19.20;38.00;;;;;;5080392;28;20036;-70
2021/01/08 01:36:19;;;;;;;0.03;0.03;;;19.20;37.90;;;;;;5078260;28;20089;-70
2021/01/08 01:38:45;;;;;;;0.00;0.00;;;19.10;37.90;;;;;;5085107;28;20100;-70
2021/01/08 01:41:10;;;;;;;0.20;0.10;;;19.10;38.60;;;;;;5083022;28;20040;-70
2021/01/08 01:43:36;;;;;;;1.15;0.95;;;19.20;38.00;;;;;;5092495;28;20085;-75
2021/01/08 01:46:02;;;;;;;0.00;0.00;;;19.20;38.10;;;;;;5093589;28;20483;-75
2021/01/08 01:48:28;;;;;;;0.00;0.00;;;19.20;38.00;;;;;;5076339;28;20414;-75
2021/01/08 01:50:53;;;;;;;0.10;0.10;;;19.20;38.00;;;;;;5093011;28;20030;-75
2021/01/08 01:53:19;;;;;;;0.22;0.22;;;19.20;38.00;;;;;;5074658;28;20511;-75
2021/01/08 01:55:45;;;;;;;0.00;0.00;;;19.20;38.00;;;;;;5075889;28;20528;-75
2021/01/08 01:58:10;;;;;;;0.00;0.00;;;19.20;37.90;;;;;;5093191;28;20028;-74
2021/01/08 02:00:36;;;;;;;0.00;0.00;;;19.10;37.90;;;;;;5093136;28;20119;-75
2021/01/08 02:03:18;;;;;;;0.00;0.00;;;19.10;37.90;;;;;;5090278;28;20032;-75
2021/01/08 02:05:44;;;;;;;0.15;0.10;;;19.10;37.90;;;;;;5058716;28;20051;-76
2021/01/08 02:08:17;;;;;;;0.40;0.38;;;19.10;37.80;;;;;;5065419;28;20077;-75
2021/01/08 02:11:09;;;;;;;0.00;0.00;;;19.20;37.80;;;;;;5064163;28;20127;-70
2021/01/08 02:13:51;;;;;;;0.00;0.00;;;19.10;37.80;;;;;;5043081;28;20016;-70
2021/01/08 02:16:17;;;;;;;0.05;0.05;;;19.10;37.80;;;;;;5071284;28;20055;-74
2021/01/08 02:18:44;;;;;;;0.00;0.00;;;19.10;37.70;;;;;;5075306;28;20511;-76
2021/01/08 02:21:19;;;;;;;0.10;0.10;;;19.10;37.70;;;;;;5058307;28;20036;-75
2021/01/08 02:24:01;;;;;;;0.00;0.00;;;19.10;37.80;;;;;;5064185;28;20020;-75
2021/01/08 02:26:27;;;;;;;0.00;0.00;;;19.10;37.80;;;;;;5062261;28;20028;-75
2021/01/08 02:28:53;;;;;;;0.10;0.10;;;19.10;37.80;;;;;;5050430;28;20045;-76
2021/01/08 02:31:18;;;;;;;0.10;0.10;;;19.10;37.70;;;;;;5057686;28;20032;-75
2021/01/08 02:33:45;;;;;;;0.08;0.08;;;19.10;37.80;;;;;;5073216;28;20086;-75
2021/01/08 02:36:11;;;;;;;0.08;0.08;;;19.10;37.90;;;;;;5074282;28;20028;-75
2021/01/08 02:38:36;;;;;;;0.10;0.10;;;19.10;37.80;;;;;;5074882;28;20028;-75
2021/01/08 02:41:03;;;;;;;0.35;0.32;;;19.00;37.80;;;;;;5029411;28;20055;-75
2021/01/08 02:43:28;;;;;;;0.10;0.10;;;19.00;37.80;;;;;;5046821;28;20032;-76
2021/01/08 02:45:54;;;;;;;0.00;0.00;;;19.00;37.80;;;;;;5065611;28;20097;-76
2021/01/08 02:48:20;;;;;;;0.05;0.05;;;19.00;37.80;;;;;;5061977;28;20051;-77
2021/01/08 02:50:45;;;;;;;0.00;0.00;;;19.00;37.90;;;;;;5080536;28;20073;-74
2021/01/08 02:53:13;;;;;;;0.20;0.20;;;19.00;37.90;;;;;;5049367;28;20034;-76
2021/01/08 02:55:41;;;;;;;0.00;0.00;;;19.00;37.90;;;;;;5056781;28;20499;-76
2021/01/08 02:58:07;;;;;;;0.17;0.17;;;18.90;37.80;;;;;;5055795;28;20033;-76
2021/01/08 03:00:33;;;;;;;0.00;0.00;;;19.00;37.90;;;;;;5071215;28;20032;-75
2021/01/08 03:02:59;;;;;;;2.13;0.52;;;18.90;37.80;;;;;;5090118;28;20085;-76
2021/01/08 03:05:27;;;;;;;0.00;0.00;;;18.90;37.90;;;;;;5068462;28;20027;-75
2021/01/08 03:07:53;;;;;;;0.80;0.30;;;18.90;37.90;;;;;;5058082;28;20028;-76
2021/01/08 03:10:18;;;;;;;1.10;0.63;;;18.90;37.90;;;;;;5070417;28;21991;-75
2021/01/08 03:12:50;;;;;;;0.00;0.00;;;18.90;37.90;;;;;;5090625;28;20035;-76
2021/01/08 03:15:16;;;;;;;0.00;0.00;;;18.90;37.90;;;;;;5074925;28;20016;-75
2021/01/08 03:18:03;;;;;;;0.00;0.00;;;18.90;38.00;;;;;;5092220;28;20502;-76
2021/01/08 03:20:29;;;;;;;0.17;0.17;;;18.90;37.90;;;;;;5076246;28;20039;-78
2021/01/08 03:22:55;;;;;;;0.00;0.00;;;18.90;37.90;;;;;;5073629;28;20048;-78
2021/01/08 03:25:20;;;;;;;0.00;0.00;;;18.90;37.90;;;;;;5089893;28;20028;-78
2021/01/08 03:27:46;;;;;;;0.17;0.08;;;18.90;37.90;;;;;;5074697;28;20024;-77
2021/01/08 03:30:12;;;;;;;0.00;0.00;;;18.90;37.90;;;;;;5060364;28;20039;-76
2021/01/08 03:32:38;;;;;;;0.00;0.00;;;18.90;37.90;;;;;;5087256;28;20052;-76
2021/01/08 03:35:05;;;;;;;0.03;0.03;;;18.80;37.80;;;;;;5067218;28;20016;-70
2021/01/08 03:37:30;;;;;;;0.00;0.00;;;18.90;37.80;;;;;;5072831;28;20024;-70
2021/01/08 03:39:56;;;;;;;0.30;0.30;;;18.80;37.80;;;;;;5074239;28;20036;-69
2021/01/08 03:42:22;;;;;;;0.00;0.00;;;18.90;38.20;;;;;;5092283;28;21352;-68
2021/01/08 03:44:47;;;;;;;0.08;0.08;;;18.90;37.90;;;;;;5062162;28;20135;-70
2021/01/08 03:47:13;;;;;;;0.63;0.25;;;18.90;37.80;;;;;;5084232;28;20045;-70
2021/01/08 03:49:38;;;;;;;0.10;0.10;;;18.80;37.80;;;;;;5078215;28;20028;-69
2021/01/08 03:52:08;;;;;;;0.00;0.00;;;18.90;37.80;;;;;;5073285;28;20069;-70
2021/01/08 03:54:34;;;;;;;0.55;0.52;;;18.80;37.80;;;;;;5070067;28;20020;-70
2021/01/08 03:56:59;;;;;;;0.00;0.00;;;18.80;37.70;;;;;;5080861;28;20077;-69
2021/01/08 03:59:43;;;;;;;8.85;5.07;;;18.80;37.80;;;;;;5080049;28;20391;-70
2021/01/08 04:02:08;;;;;;;7.53;4.10;;;18.80;38.40;;;;;;5059946;28;20036;-70
2021/01/08 04:04:34;;;;;;;9.90;3.50;;;18.80;37.80;;;;;;5090033;28;20027;-69
2021/01/08 04:06:59;;;;;;;2.88;1.65;;;18.80;37.90;;;;;;5074756;28;20028;-70
2021/01/08 04:09:25;;;;;;;10.93;5.68;;;18.80;37.80;;;;;;5074416;28;20141;-70
2021/01/08 04:11:51;;;;;;;9.75;4.80;;;18.80;37.80;;;;;;5094191;28;20149;-70
2021/01/08 04:14:16;;;;;;;10.20;5.22;;;18.80;37.90;;;;;;5074843;28;20032;-69
2021/01/08 04:16:42;;;;;;;11.40;5.45;;;18.80;37.90;;;;;;5092163;28;20024;-70
2021/01/08 04:19:08;;;;;;;10.05;5.32;;;18.70;37.90;;;;;;5075965;28;20465;-70
2021/01/08 04:21:34;;;;;;;5.70;2.88;;;18.70;38.50;;;;;;5074959;28;20040;-69
2021/01/08 04:24:00;;;;;;;12.25;6.25;;;18.70;37.90;;;;;;5040650;28;20044;-69
2021/01/08 04:26:26;;;;;;;11.23;5.05;;;18.70;37.90;;;;;;5063719;28;20046;-69
2021/01/08 04:28:51;;;;;;;12.02;4.68;;;18.70;38.00;;;;;;5076347;28;20055;-69
2021/01/08 04:31:17;;;;;;;11.60;6.25;;;18.70;38.00;;;;;;5077605;28;20032;-69
2021/01/08 04:33:43;;;;;;;8.43;5.22;;;18.70;38.00;;;;;;5095449;28;20031;-69
2021/01/08 04:36:09;;;;;;;11.73;5.70;;;18.70;38.00;;;;;;5091015;28;20034;-69
2021/01/08 04:38:41;;;;;;;11.73;4.75;;;18.70;38.00;;;;;;5076825;28;20107;-69
2021/01/08 04:41:06;;;;;;;11.07;5.93;;;18.70;38.00;;;;;;5076057;28;20028;-69
2021/01/08 04:43:33;;;;;;;21.02;4.60;;;18.70;38.00;;;;;;5095334;28;20031;-69
2021/01/08 04:46:01;;;;;;;8.98;4.63;;;18.70;38.00;;;;;;5093893;28;20546;-69
2021/01/08 04:48:27;;;;;;;12.88;5.30;;;18.60;38.00;;;;;;5056584;28;20032;-69
2021/01/08 04:50:52;;;;;;;5.93;2.92;;;18.70;38.00;;;;;;5077036;28;20495;-69
2021/01/08 04:53:18;;;;;;;10.80;5.43;;;18.70;38.00;;;;;;5060107;28;20021;-70
2021/01/08 04:55:44;;;;;;;12.57;5.35;;;18.60;38.00;;;;;;5075045;28;20028;-69
2021/01/08 05:01:31;;;;;;;12.73;7.15;;;18.60;37.90;;;;;;5095969;28;20089;-69
2021/01/08 05:03:57;;;;;;;8.40;5.68;;;18.60;38.00;;;;;;5093875;28;20028;-69
2021/01/08 05:06:23;;;;;;;1.52;0.70;;;18.60;38.00;;;;;;5094928;28;20397;-69
2021/01/08 05:08:48;;;;;;;2.05;0.77;;;18.70;37.90;;;;;;5076174;28;20027;-70
2021/01/08 05:11:24;;;;;;;10.68;6.85;;;18.80;38.50;;;;;;5093794;28;20032;-68
2021/01/08 05:13:51;;;;;;;1.25;1.10;;;18.80;37.80;;;;;;5094399;28;20403;-69
2021/01/08 05:16:17;;;;;;;1.15;0.60;;;18.90;37.70;;;;;;5090808;28;20031;-69
2021/01/08 05:18:42;;;;;;;1.73;0.88;;;19.00;37.50;;;;;;5058267;28;20021;-69
2021/01/08 05:21:08;;;;;;;9.60;6.53;;;19.10;37.40;;;;;;5085773;28;20020;-68
2021/01/08 05:23:33;;;;;;;1.08;0.90;;;19.20;37.30;;;;;;5075696;28;20387;-69
2021/01/08 05:25:59;;;;;;;0.50;0.50;;;19.30;37.10;;;;;;5074678;28;20375;-70
2021/01/08 05:28:24;;;;;;;9.45;6.30;;;19.30;36.90;;;;;;5075472;28;20079;-69
2021/01/08 05:30:50;;;;;;;5.13;3.90;;;19.50;36.80;;;;;;5098662;28;20028;-70
2021/01/08 05:33:16;;;;;;;1.77;0.88;;;19.50;36.70;;;;;;5075406;28;20024;-69
2021/01/08 05:35:42;;;;;;;0.95;0.85;;;19.70;36.40;;;;;;5065045;28;20491;-69
2021/01/08 05:38:08;;;;;;;11.13;6.85;;;19.80;36.30;;;;;;5091261;28;20090;-69
2021/01/08 05:40:34;;;;;;;1.85;0.47;;;19.80;36.20;;;;;;5073667;28;20024;-69
2021/01/08 05:43:00;;;;;;;1.20;0.90;;;20.00;36.10;;;;;;5058749;28;20414;-69
2021/01/08 05:45:27;;;;;;;2.33;0.80;;;20.00;35.90;;;;;;5092997;28;20392;-73
2021/01/08 05:47:53;;;;;;;9.50;6.20;;;20.10;35.70;;;;;;5059015;28;20032;-73
2021/01/08 05:50:21;;;;;;;1.13;0.80;;;20.20;35.70;;;;;;5076295;28;20024;-74
2021/01/08 05:53:04;;;;;;;1.25;0.80;;;20.30;35.50;;;;;;5074836;28;20078;-70
2021/01/08 05:55:37;;;;;;;0.68;0.68;;;20.30;35.40;;;;;;5058745;28;20036;-69
2021/01/08 05:58:18;;;;;;;5.95;3.97;;;20.30;35.30;;;;;;5072501;28;20013;-69
2021/01/08 06:00:59;;;;;;;2.22;0.45;;;20.40;35.40;;;;;;5090667;28;20028;-69
2021/01/08 06:03:25;;;;;;;1.08;0.80;;;20.40;35.30;;;;;;5069789;28;20521;-69
2021/01/08 06:05:52;;;;;;;5.90;3.33;;;20.40;35.30;;;;;;5089939;28;20087;-69
2021/01/08 06:08:27;;;;;;;8.38;5.80;;;20.40;35.30;;;;;;5092032;28;20024;-69
2021/01/08 06:10:55;;;;;;;1.10;0.93;;;20.50;35.40;;;;;;5073437;28;20500;-75
2021/01/08 06:13:32;;;;;;;2.05;0.75;;;20.50;35.40;;;;;;5056792;28;20571;-74
2021/01/08 06:15:57;;;;;;;1.70;0.77;;;20.50;35.40;;;;;;5070049;28;20043;-75
2021/01/08 06:18:26;;;;;;;7.43;5.85;;;20.50;35.40;;;;;;5073556;28;20025;-74
2021/01/08 06:20:53;;;;;;;3.00;0.90;;;20.50;35.50;;;;;;5086208;28;20036;-74
2021/01/08 06:23:51;;;;;;;1.75;0.70;;;20.50;35.50;;;;;;5073374;28;20509;-75
2021/01/08 06:26:18;;;;;;;1.75;0.90;;;20.50;35.50;;;;;;4984964;28;20041;-69
2021/01/08 06:28:45;;;;;;;12.45;7.00;;;20.50;35.50;;;;;;5010156;28;20042;-69
2021/01/08 06:34:31;;;;;;;4.88;1.02;;;20.50;35.60;;;;;;5009888;28;20136;-69
2021/01/08 06:37:14;;;;;;;1.20;0.40;;;20.50;35.60;;;;;;4992980;28;20536;-69
2021/01/08 06:39:44;;;;;;;1.30;0.82;;;20.50;35.60;;;;;;5004634;28;20104;-69
2021/01/08 06:42:10;;;;;;;8.35;5.82;;;20.50;35.70;;;;;;5005591;28;20034;-69
2021/01/08 06:44:35;;;;;;;1.80;0.70;;;20.50;35.80;;;;;;5028506;28;20028;-69
2021/01/08 06:47:04;;;;;;;2.42;1.00;;;20.40;35.70;;;;;;5025936;28;20104;-69
2021/01/08 06:49:32;;;;;;;2.72;0.77;;;20.50;35.80;;;;;;5013543;28;20413;-70
2021/01/08 06:52:01;;;;;;;12.07;8.30;;;20.50;35.80;;;;;;5014029;28;20040;-70
2021/01/08 06:54:27;;;;;;;0.88;0.65;;;20.50;35.80;;;;;;5010989;28;20029;-70
2021/01/08 06:56:52;;;;;;;2.60;0.70;;;20.50;36.50;;;;;;4995434;28;20128;-70
2021/01/08 06:59:20;;;;;;;1.65;0.88;;;20.50;35.80;;;;;;4995549;28;20164;-70
2021/01/08 07:01:55;;;;;;;3.70;0.93;;;20.50;35.80;;;;;;5056432;28;20039;-70
2021/01/08 07:04:22;;;;;;;9.27;6.75;;;20.50;35.80;;;;;;5086530;28;20046;-70
2021/01/08 07:06:48;;;;;;;1.75;0.82;;;20.50;35.80;;;;;;5089304;28;20044;-70
2021/01/08 07:09:13;;;;;;;3.83;0.73;;;20.50;35.80;;;;;;5055257;28;20040;-70
2021/01/08 07:11:39;;;;;;;1.02;0.90;;;20.50;35.80;;;;;;5086504;28;20028;-70
2021/01/08 07:14:06;;;;;;;9.73;6.75;;;20.50;35.70;;;;;;5089013;28;20073;-69
2021/01/08 07:16:31;;;;;;;1.35;0.70;;;20.50;35.80;;;;;;5090281;28;20475;-70
2021/01/08 07:19:05;;;;;;;1.63;0.85;;;20.50;35.80;;;;;;5072188;28;20042;-69
2021/01/08 07:21:31;;;;;;;5.72;0.73;;;20.50;35.70;;;;;;5091438;28;20535;-69
2021/01/08 07:23:56;;;;;;;1.02;0.70;;;20.50;35.70;;;;;;5050784;28;20036;-68
2021/01/08 07:26:22;;;;;;;11.77;7.35;;;20.60;35.80;;;;;;5070404;28;20098;-69
2021/01/08 07:28:50;;;;;;;1.00;0.65;;;20.60;35.90;;;;;;5053617;28;20060;-69
2021/01/08 07:31:15;;;;;;;0.40;0.40;;;20.60;35.80;;;;;;5069972;28;20111;-69
2021/01/08 07:33:47;;;;;;;1.08;0.95;;;20.60;35.80;;;;;;5050250;28;20096;-69
2021/01/08 07:36:23;;;;;;;1.17;0.73;;;20.60;35.80;;;;;;5072317;28;20028;-69
2021/01/08 07:38:49;;;;;;;9.77;6.15;;;20.60;35.90;;;;;;5070463;28;20132;-70
2021/01/08 07:41:29;;;;;;;1.42;0.75;;;20.60;35.90;;;;;;5070817;28;20468;-70
2021/01/08 07:43:54;;;;;;;2.45;1.58;;;20.60;35.90;;;;;;5043706;28;20036;-70
2021/01/08 07:46:29;;;;;;;2.60;0.60;;;20.60;35.90;;;;;;5059164;28;20028;-69
2021/01/08 07:48:59;;;;;;;1.38;1.02;;;20.60;35.90;;;;;;5070021;28;20036;-69
2021/01/08 07:51:43;;;;;;;9.65;6.43;;;20.60;36.00;;;;;;5054658;28;20487;-69
2021/01/08 07:54:09;;;;;;;1.85;0.95;;;20.60;35.90;;;;;;5076362;28;20040;-74
2021/01/08 07:56:34;;;;;;;6.60;0.82;;;20.60;35.90;;;;;;5073887;28;20058;-73
2021/01/08 07:59:04;;;;;;;2.00;0.90;;;20.60;35.90;;;;;;5093757;28;20073;-74
2021/01/08 08:01:31;;;;;;;1.48;0.82;;;20.60;35.90;;;;;;5067317;28;20067;-73
2021/01/08 08:04:14;;;;;;;0.80;0.73;;;20.70;36.00;;;;;;5058439;28;20115;-69
2021/01/08 08:06:41;;;;;;;1.25;0.90;;;20.70;35.90;;;;;;5048739;28;20111;-70
2021/01/08 08:09:07;;;;;;;1.90;0.95;;;20.70;35.90;;;;;;5068664;28;20028;-72
2021/01/08 08:11:34;;;;;;;2.85;0.90;;;20.70;35.90;;;;;;5066628;28;21671;-74
2021/01/08 08:14:00;;;;;;;0.65;0.63;;;20.70;35.90;;;;;;5088945;28;20032;-73
2021/01/08 08:16:36;;;;;;;1.27;0.70;;;20.80;36.50;;;;;;5072539;28;20099;-70
2021/01/08 08:19:03;;;;;;;3.30;0.70;;;20.80;35.90;;;;;;5059051;28;20066;-70
2021/01/08 08:21:28;;;;;;;2.72;0.95;;;20.80;35.90;;;;;;5087967;28;20094;-71
2021/01/08 08:23:58;;;;;;;3.85;1.30;;;20.70;35.90;;;;;;5083300;28;20028;-72
2021/01/08 08:26:24;;;;;;;11.18;7.15;;;20.80;36.00;;;;;;5059939;28;20032;-72
2021/01/08 08:29:08;;;;;;;1.23;0.85;;;20.70;36.00;;;;;;5059695;28;20048;-72
2021/01/08 08:31:37;;;;;;;1.88;0.77;;;20.70;36.00;;;;;;5081440;28;20023;-72
2021/01/08 08:34:04;;;;;;;0.75;0.70;;;20.70;36.00;;;;;;5076230;28;20473;-72
2021/01/08 08:36:31;;;;;;;2.63;1.00;;;20.70;36.10;;;;;;5063138;28;20012;-72
2021/01/08 08:39:10;;;;;;;1.73;1.08;;;20.70;36.10;;;;;;5059757;28;20040;-72
2021/01/08 08:41:37;;;;;;;14.60;9.18;;;20.70;36.20;;;;;;5065797;28;20488;-72
2021/01/08 08:44:10;;;;;;;0.50;0.43;;;20.70;36.10;;;;;;5057136;28;20076;-72
2021/01/08 08:46:48;;;;;;;1.10;0.98;;;20.70;36.20;;;;;;5062109;28;20145;-72
2021/01/08 08:49:32;;;;;;;1.35;0.80;;;20.70;36.20;;;;;;5080072;28;20492;-72
2021/01/08 08:51:58;;;;;;;0.70;0.60;;;20.60;36.20;;;;;;5060717;28;20040;-72
2021/01/08 08:54:24;;;;;;;0.77;0.65;;;20.70;36.20;;;;;;5092495;28;20032;-72
2021/01/08 08:56:54;;;;;;;1.77;0.93;;;20.70;36.20;;;;;;5075738;28;20431;-71
2021/01/08 08:59:39;;;;;;;2.10;0.75;;;20.60;36.20;;;;;;5073622;28;20020;-71
2021/01/08 09:02:48;;;;;;;3.88;1.00;;;20.60;36.20;;;;;;5060270;28;20043;-71
2021/01/08 09:05:14;;;;;;;0.80;0.57;;;20.60;36.20;;;;;;5094476;28;20035;-72
2021/01/08 09:07:40;;;;;;;1.30;0.60;;;20.60;36.20;;;;;;5074620;28;20119;-74
2021/01/08 09:10:14;;;;;;;0.90;0.57;;;20.60;36.20;;;;;;5086567;28;20410;-72
2021/01/08 09:12:59;;;;;;;0.68;0.50;;;20.60;36.20;;;;;;5064160;28;20029;-73
2021/01/08 09:15:31;;;;;;;1.60;0.82;;;20.60;36.30;;;;;;5074957;28;20021;-71
2021/01/08 09:18:07;;;;;;;1.30;1.00;;;20.60;36.30;;;;;;5056304;28;20037;-71
2021/01/08 09:20:32;;;;;;;1.63;0.85;;;20.60;36.30;;;;;;5052011;28;20506;-72
2021/01/08 09:22:58;;;;;;;2.05;1.23;;;20.60;36.30;;;;;;5071905;28;20028;-72
2021/01/08 09:25:24;;;;;;;1.23;1.00;;;20.60;36.30;;;;;;5072312;28;20668;-72
2021/01/08 09:27:49;;;;;;;1.33;0.90;;;20.60;36.30;;;;;;5055866;28;20025;-69
2021/01/08 09:30:15;;;;;;;1.40;0.88;;;20.70;36.30;;;;;;5071156;28;20054;-70
2021/01/08 09:32:41;;;;;;;1.45;1.17;;;20.70;36.20;;;;;;5060855;28;20940;-70
2021/01/08 09:35:08;;;;;;;1.08;0.95;;;20.70;36.20;;;;;;5041255;28;20033;-71
2021/01/08 09:37:39;;;;;;;1.20;1.10;;;20.70;36.20;;;;;;5058075;28;20055;-71
2021/01/08 09:40:13;;;;;;;2.38;1.55;;;20.70;36.20;;;;;;5059242;28;20093;-69
2021/01/08 09:42:38;;;;;;;3.35;1.75;;;20.70;36.30;;;;;;5051607;28;20085;-70
2021/01/08 09:45:25;;;;;;;2.38;1.33;;;20.70;36.30;;;;;;5066732;28;20036;-71
2021/01/08 09:47:51;;;;;;;5.68;1.50;;;20.70;36.40;;;;;;5070196;28;20037;-72
2021/01/08 09:50:27;;;;;;;1.70;1.00;;;20.70;36.40;;;;;;5063435;28;20070;-72
2021/01/08 09:52:58;;;;;;;2.88;1.15;;;20.70;36.40;;;;;;5061646;28;20059;-72
2021/01/08 09:55:27;;;;;;;3.83;1.70;;;20.80;36.40;;;;;;5070687;28;20499;-72
2021/01/08 09:57:58;;;;;;;2.67;1.27;;;20.80;36.40;;;;;;5085268;28;20018;-72
2021/01/08 10:00:52;;;;;;;8.75;1.83;;;20.80;36.40;;;;;;5063545;28;20028;-72
2021/01/08 10:03:24;;;;;;;4.13;1.65;;;20.80;36.40;;;;;;5065970;28;20660;-71
2021/01/08 10:05:50;;;;;;;6.18;1.52;;;20.80;36.40;;;;;;5084259;28;20036;-76
2021/01/08 10:08:22;;;;;;;1.75;1.17;;;20.80;36.40;;;;;;5074006;28;20020;-76
2021/01/08 10:10:48;;;;;;;2.17;1.13;;;20.80;36.40;;;;;;5086994;28;20074;-76
2021/01/08 10:13:15;;;;;;;6.75;1.77;;;20.80;36.40;;;;;;5081812;28;20488;-76
2021/01/08 10:15:47;;;;;;;2.42;1.20;;;20.80;36.30;;;;;;5067048;28;20036;-76
2021/01/08 10:18:32;;;;;;;2.13;1.20;;;20.80;36.30;;;;;;5052461;28;20030;-76
2021/01/08 10:21:07;;;;;;;1.70;1.08;;;20.80;36.30;;;;;;5039218;28;20776;-76
2021/01/08 10:23:43;;;;;;;2.75;1.10;;;20.80;36.30;;;;;;5069128;28;20024;-76
2021/01/08 10:26:16;;;;;;;2.60;1.50;;;20.80;36.30;;;;;;5053236;28;20111;-76
2021/01/08 10:28:49;;;;;;;4.10;1.13;;;20.80;36.30;;;;;;5056533;28;20047;-76
2021/01/08 10:31:15;;;;;;;0.80;0.80;;;20.80;36.30;;;;;;5064359;28;20020;-76
2021/01/08 10:33:41;;;;;;;6.53;1.23;;;20.80;36.30;;;;;;5078691;28;20022;-76
2021/01/08 10:36:07;;;;;;;1.58;1.08;;;20.80;36.30;;;;;;5051041;28;20036;-76
2021/01/08 10:38:32;;;;;;;7.18;1.00;;;20.80;36.30;;;;;;5047596;28;20449;-76
2021/01/08 10:40:58;;;;;;;2.25;1.25;;;20.80;36.30;;;;;;5067094;28;20052;-76
2021/01/08 10:43:23;;;;;;;2.50;0.90;;;20.90;36.40;;;;;;5054872;28;20047;-76
2021/01/08 10:45:50;;;;;;;2.58;1.27;;;20.90;36.40;;;;;;5072867;28;20064;-76
2021/01/08 10:48:16;;;;;;;4.50;1.38;;;20.80;36.40;;;;;;5058358;28;20036;-75
2021/01/08 10:50:42;;;;;;;2.63;1.02;;;20.80;36.40;;;;;;5062244;28;20039;-76
2021/01/08 10:53:10;;;;;;;1.20;0.90;;;20.80;36.40;;;;;;5067195;28;20020;-76
2021/01/08 10:55:36;;;;;;;1.98;1.25;;;20.90;36.40;;;;;;5067038;28;20036;-72
2021/01/08 10:58:02;;;;;;;1.08;0.95;;;20.80;36.40;;;;;;5061536;28;20028;-72
2021/01/08 11:00:28;;;;;;;2.13;0.90;;;20.80;36.40;;;;;;5061958;28;20530;-72
2021/01/08 11:02:53;;;;;;;1.45;0.80;;;20.80;36.40;;;;;;5064637;28;20645;-72
2021/01/08 11:05:19;;;;;;;3.20;0.90;;;20.90;36.50;;;;;;5089779;28;20089;-72
2021/01/08 11:07:45;;;;;;;1.05;0.85;;;20.80;36.40;;;;;;5072949;28;20085;-72
2021/01/08 11:10:12;;;;;;;1.10;0.60;;;20.80;36.40;;;;;;5058931;28;20119;-71
2021/01/08 11:12:38;;;;;;;3.15;1.10;;;20.80;36.40;;;;;;5069509;28;20071;-72
2021/01/08 11:15:04;;;;;;;4.15;1.60;;;20.80;36.30;;;;;;5085765;28;20399;-72
2021/01/08 11:17:30;;;;;;;2.08;1.05;;;20.80;36.30;;;;;;5074141;28;20048;-72
2021/01/08 11:19:56;;;;;;;2.80;1.20;;;20.80;36.30;;;;;;5076562;28;20032;-72
2021/01/08 11:22:21;;;;;;;0.52;0.52;;;20.80;36.40;;;;;;5082678;28;20028;-72
2021/01/08 11:24:47;;;;;;;2.78;1.13;;;20.80;36.40;;;;;;5058613;28;20044;-72
2021/01/08 11:27:12;;;;;;;3.20;1.10;;;20.80;36.40;;;;;;5049516;28;20028;-72
2021/01/08 11:29:38;;;;;;;1.45;0.77;;;20.80;36.40;;;;;;5079435;28;20055;-76
2021/01/08 11:32:07;;;;;;;4.22;1.05;;;20.80;36.50;;;;;;5058410;28;20445;-76
2021/01/08 11:34:48;;;;;;;2.78;1.23;;;20.80;36.50;;;;;;5080107;28;20039;-76
2021/01/08 11:37:14;;;;;;;0.98;0.73;;;20.80;36.50;;;;;;5059518;28;20024;-76
2021/01/08 11:39:39;;;;;;;1.65;0.77;;;20.80;36.50;;;;;;5081240;28;20024;-71
2021/01/08 11:42:05;;;;;;;1.30;0.90;;;20.80;36.60;;;;;;5063336;28;20033;-72
2021/01/08 11:44:31;;;;;;;1.38;0.80;;;20.80;36.60;;;;;;5078930;28;20024;-72
2021/01/08 11:46:57;;;;;;;1.23;0.90;;;20.80;36.70;;;;;;5058195;28;20399;-72
2021/01/08 11:49:25;;;;;;;2.80;1.30;;;20.80;36.50;;;;;;5077523;28;20499;-72
2021/01/08 11:51:56;;;;;;;1.90;0.93;;;20.80;37.20;;;;;;5055844;28;20060;-72
2021/01/08 11:54:22;;;;;;;0.98;0.93;;;20.80;36.60;;;;;;5060605;28;20426;-72
2021/01/08 11:56:47;;;;;;;0.90;0.70;;;20.80;36.60;;;;;;5071756;28;20116;-76
2021/01/08 11:59:13;;;;;;;0.55;0.52;;;20.80;36.60;;;;;;5089816;28;20024;-76
2021/01/08 12:01:38;;;;;;;0.90;0.75;;;20.80;36.60;;;;;;5089307;28;20032;-76
2021/01/08 12:04:04;;;;;;;1.25;0.55;;;20.80;36.60;;;;;;5082750;28;20028;-72
2021/01/08 12:06:31;;;;;;;3.47;1.00;;;20.80;36.70;;;;;;5090306;28;20052;-76
2021/01/08 12:08:57;;;;;;;3.75;1.25;;;20.80;36.70;;;;;;5071716;28;20036;-76
2021/01/08 12:11:29;;;;;;;5.47;1.20;;;20.80;36.70;;;;;;5068664;28;20020;-76
2021/01/08 12:13:55;;;;;;;2.25;1.13;;;20.80;36.70;;;;;;5055770;28;20020;-76
2021/01/08 12:16:25;;;;;;;1.63;0.88;;;20.80;37.40;;;;;;5054061;28;20132;-76
2021/01/08 12:18:50;;;;;;;1.42;0.60;;;20.80;36.80;;;;;;5055740;28;20043;-75
2021/01/08 12:21:16;;;;;;;1.77;0.70;;;20.80;36.80;;;;;;5078113;28;20423;-76
2021/01/08 12:23:42;;;;;;;0.95;0.77;;;20.80;36.80;;;;;;5089518;28;20048;-75
2021/01/08 12:26:13;;;;;;;1.90;0.82;;;20.80;36.80;;;;;;5090114;28;20040;-75
2021/01/08 12:28:54;;;;;;;1.17;0.57;;;20.80;36.80;;;;;;5072848;28;20060;-76
2021/01/08 12:31:23;;;;;;;1.25;1.15;;;20.80;37.50;;;;;;5045594;28;20479;-76
2021/01/08 12:33:50;;;;;;;1.38;0.95;;;20.80;36.80;;;;;;5057422;28;20089;-76
2021/01/08 12:36:17;;;;;;;1.98;0.90;;;20.80;36.80;;;;;;5076422;28;20016;-76
2021/01/08 12:38:49;;;;;;;2.30;1.10;;;20.80;36.90;;;;;;5088247;28;20016;-76
2021/01/08 12:41:15;;;;;;;0.73;0.70;;;20.80;36.90;;;;;;5088544;28;20035;-76
2021/01/08 12:43:40;;;;;;;1.25;0.70;;;20.80;36.90;;;;;;5090644;28;20023;-76
2021/01/08 12:46:06;;;;;;;0.75;0.60;;;20.80;36.90;;;;;;5092492;28;20547;-75
2021/01/08 12:48:53;;;;;;;3.63;0.90;;;20.80;36.90;;;;;;5091023;28;20392;-76
2021/01/08 12:51:19;;;;;;;2.03;1.00;;;20.80;36.90;;;;;;5088135;28;20107;-76
2021/01/08 12:53:44;;;;;;;0.68;0.63;;;20.70;36.90;;;;;;5094520;28;20077;-76
2021/01/08 12:56:13;;;;;;;0.98;0.70;;;20.80;37.00;;;;;;5064824;28;20112;-76
2021/01/08 12:58:38;;;;;;;0.95;0.80;;;20.70;37.00;;;;;;5059367;28;20059;-76
2021/01/08 13:01:26;;;;;;;0.70;0.63;;;20.70;36.90;;;;;;5057791;28;20048;-76
2021/01/08 13:03:52;;;;;;;2.13;1.13;;;20.70;37.00;;;;;;5093606;28;20028;-76